Haast, New Zealand
Current Conditions -  °F | °C
As of 2:00 AM on Tuesday 27 Jan 2015 (Local Time) from NZCH Reporting Station
Few Clouds Few Clouds  
Wind Chill: 63°   Ceiling: Unl
Heat Index: 63°   Visibility: 6mi
Dew Point: 59°   Wind: 13mph
Humidity: 88%   Direction: 80°E
Pressure: 29.85"   Gusts: NA
Location:  43.88°S, 169.04°E
Report Text: NZCH 261400Z AUTO 08011KT 9999 FEW011/// 17/15 Q1011 BECMGBKN011
Loading
Personal Weather Stations






























Interactive Weather Map New forecast layout! Learn more

10-Day Weather Forecast

Advertisements
Track Severe Weather on mobile